sensor_id;sensor_type;location;lat;lon;timestamp;P1;durP1;ratioP1;P2;durP2;ratioP2
68714;SDS011;55692;53.356;10.030;2023-11-21T00:02:04;20.77;;;9.32;;
68714;SDS011;55692;53.356;10.030;2023-11-21T00:04:30;22.00;;;8.80;;
68714;SDS011;55692;53.356;10.030;2023-11-21T00:06:56;22.92;;;8.75;;
68714;SDS011;55692;53.356;10.030;2023-11-21T00:09:22;18.10;;;8.90;;
68714;SDS011;55692;53.356;10.030;2023-11-21T00:11:48;18.88;;;9.13;;
68714;SDS011;55692;53.356;10.030;2023-11-21T00:14:14;17.90;;;8.95;;
68714;SDS011;55692;53.356;10.030;2023-11-21T00:16:41;19.05;;;9.48;;
68714;SDS011;55692;53.356;10.030;2023-11-21T00:19:07;15.15;;;7.65;;
68714;SDS011;55692;53.356;10.030;2023-11-21T00:21:33;15.45;;;7.35;;
68714;SDS011;55692;53.356;10.030;2023-11-21T00:23:59;12.38;;;6.68;;
68714;SDS011;55692;53.356;10.030;2023-11-21T00:26:25;14.13;;;6.07;;
68714;SDS011;55692;53.356;10.030;2023-11-21T00:28:51;16.15;;;6.13;;
68714;SDS011;55692;53.356;10.030;2023-11-21T00:31:17;15.85;;;7.00;;
68714;SDS011;55692;53.356;10.030;2023-11-21T00:33:43;15.18;;;6.30;;
68714;SDS011;55692;53.356;10.030;2023-11-21T00:36:09;17.30;;;6.45;;
68714;SDS011;55692;53.356;10.030;2023-11-21T00:38:36;16.98;;;5.68;;
68714;SDS011;55692;53.356;10.030;2023-11-21T00:41:04;15.23;;;5.63;;
68714;SDS011;55692;53.356;10.030;2023-11-21T00:43:31;15.57;;;6.13;;
68714;SDS011;55692;53.356;10.030;2023-11-21T00:45:58;13.25;;;5.63;;
68714;SDS011;55692;53.356;10.030;2023-11-21T00:48:24;21.65;;;6.32;;
68714;SDS011;55692;53.356;10.030;2023-11-21T00:50:50;21.45;;;7.22;;
68714;SDS011;55692;53.356;10.030;2023-11-21T00:53:16;23.10;;;7.07;;
68714;SDS011;55692;53.356;10.030;2023-11-21T00:55:42;19.65;;;7.28;;
68714;SDS011;55692;53.356;10.030;2023-11-21T00:58:08;17.80;;;7.32;;
68714;SDS011;55692;53.356;10.030;2023-11-21T01:00:35;20.02;;;7.78;;
68714;SDS011;55692;53.356;10.030;2023-11-21T01:03:04;26.95;;;8.55;;
68714;SDS011;55692;53.356;10.030;2023-11-21T01:05:30;22.35;;;7.60;;
68714;SDS011;55692;53.356;10.030;2023-11-21T01:07:56;22.75;;;7.75;;
68714;SDS011;55692;53.356;10.030;2023-11-21T01:10:22;20.88;;;8.25;;
68714;SDS011;55692;53.356;10.030;2023-11-21T01:12:49;18.05;;;7.47;;
68714;SDS011;55692;53.356;10.030;2023-11-21T01:15:16;23.98;;;9.25;;
68714;SDS011;55692;53.356;10.030;2023-11-21T01:17:42;21.10;;;7.22;;
68714;SDS011;55692;53.356;10.030;2023-11-21T01:20:08;19.83;;;8.05;;
68714;SDS011;55692;53.356;10.030;2023-11-21T01:22:38;20.40;;;8.25;;
68714;SDS011;55692;53.356;10.030;2023-11-21T01:25:04;15.85;;;7.55;;
68714;SDS011;55692;53.356;10.030;2023-11-21T01:27:32;18.45;;;7.53;;
68714;SDS011;55692;53.356;10.030;2023-11-21T01:29:59;21.65;;;9.18;;
68714;SDS011;55692;53.356;10.030;2023-11-21T01:32:25;22.83;;;9.40;;
68714;SDS011;55692;53.356;10.030;2023-11-21T01:34:51;17.77;;;8.30;;
68714;SDS011;55692;53.356;10.030;2023-11-21T01:37:17;23.05;;;9.95;;
68714;SDS011;55692;53.356;10.030;2023-11-21T01:39:43;19.58;;;9.70;;
68714;SDS011;55692;53.356;10.030;2023-11-21T01:42:09;23.17;;;9.68;;
68714;SDS011;55692;53.356;10.030;2023-11-21T01:44:37;25.75;;;12.15;;
68714;SDS011;55692;53.356;10.030;2023-11-21T01:47:04;26.45;;;10.88;;
68714;SDS011;55692;53.356;10.030;2023-11-21T01:49:31;23.13;;;11.35;;
68714;SDS011;55692;53.356;10.030;2023-11-21T01:51:58;25.67;;;10.57;;
68714;SDS011;55692;53.356;10.030;2023-11-21T01:54:24;22.55;;;10.10;;
68714;SDS011;55692;53.356;10.030;2023-11-21T01:56:50;20.85;;;10.38;;
68714;SDS011;55692;53.356;10.030;2023-11-21T01:59:20;21.80;;;10.63;;
68714;SDS011;55692;53.356;10.030;2023-11-21T02:01:46;22.88;;;9.43;;
68714;SDS011;55692;53.356;10.030;2023-11-21T02:04:13;21.20;;;10.35;;
68714;SDS011;55692;53.356;10.030;2023-11-21T02:06:39;20.90;;;9.75;;
68714;SDS011;55692;53.356;10.030;2023-11-21T02:09:05;21.25;;;10.75;;
68714;SDS011;55692;53.356;10.030;2023-11-21T02:11:31;24.75;;;11.48;;
68714;SDS011;55692;53.356;10.030;2023-11-21T02:13:59;23.23;;;11.20;;
68714;SDS011;55692;53.356;10.030;2023-11-21T02:16:26;22.67;;;10.43;;
68714;SDS011;55692;53.356;10.030;2023-11-21T02:18:52;20.65;;;10.07;;
68714;SDS011;55692;53.356;10.030;2023-11-21T02:21:19;24.30;;;11.63;;
68714;SDS011;55692;53.356;10.030;2023-11-21T02:23:45;24.85;;;10.20;;
68714;SDS011;55692;53.356;10.030;2023-11-21T02:26:12;22.90;;;11.15;;
68714;SDS011;55692;53.356;10.030;2023-11-21T02:28:38;21.23;;;9.90;;
68714;SDS011;55692;53.356;10.030;2023-11-21T02:31:05;26.38;;;12.25;;
68714;SDS011;55692;53.356;10.030;2023-11-21T02:33:32;21.95;;;10.75;;
68714;SDS011;55692;53.356;10.030;2023-11-21T02:35:59;12.90;;;6.45;;
68714;SDS011;55692;53.356;10.030;2023-11-21T02:38:25;24.00;;;9.60;;
68714;SDS011;55692;53.356;10.030;2023-11-21T02:40:51;19.92;;;10.00;;
68714;SDS011;55692;53.356;10.030;2023-11-21T02:43:18;21.52;;;10.40;;
68714;SDS011;55692;53.356;10.030;2023-11-21T02:45:44;17.63;;;9.85;;
68714;SDS011;55692;53.356;10.030;2023-11-21T02:48:10;20.48;;;9.27;;
68714;SDS011;55692;53.356;10.030;2023-11-21T02:50:36;18.30;;;8.90;;
68714;SDS011;55692;53.356;10.030;2023-11-21T02:53:02;16.67;;;8.82;;
68714;SDS011;55692;53.356;10.030;2023-11-21T02:55:30;17.92;;;9.10;;
68714;SDS011;55692;53.356;10.030;2023-11-21T02:57:59;16.45;;;8.50;;
68714;SDS011;55692;53.356;10.030;2023-11-21T03:00:25;16.65;;;8.18;;
68714;SDS011;55692;53.356;10.030;2023-11-21T03:02:52;18.90;;;8.45;;
68714;SDS011;55692;53.356;10.030;2023-11-21T03:05:18;16.13;;;8.15;;
68714;SDS011;55692;53.356;10.030;2023-11-21T03:07:45;17.58;;;7.90;;
68714;SDS011;55692;53.356;10.030;2023-11-21T03:10:11;17.17;;;8.48;;
68714;SDS011;55692;53.356;10.030;2023-11-21T03:12:37;16.90;;;8.02;;
68714;SDS011;55692;53.356;10.030;2023-11-21T03:15:04;15.68;;;7.97;;
68714;SDS011;55692;53.356;10.030;2023-11-21T03:17:31;14.70;;;7.72;;
68714;SDS011;55692;53.356;10.030;2023-11-21T03:19:58;16.27;;;8.27;;
68714;SDS011;55692;53.356;10.030;2023-11-21T03:22:24;14.98;;;7.00;;
68714;SDS011;55692;53.356;10.030;2023-11-21T03:24:51;19.75;;;7.40;;
68714;SDS011;55692;53.356;10.030;2023-11-21T03:27:17;14.23;;;7.78;;
68714;SDS011;55692;53.356;10.030;2023-11-21T03:29:44;12.60;;;7.18;;
68714;SDS011;55692;53.356;10.030;2023-11-21T03:32:11;15.20;;;6.88;;
68714;SDS011;55692;53.356;10.030;2023-11-21T03:34:52;14.50;;;7.57;;
68714;SDS011;55692;53.356;10.030;2023-11-21T03:37:18;12.55;;;6.97;;
68714;SDS011;55692;53.356;10.030;2023-11-21T03:39:45;11.95;;;6.72;;
68714;SDS011;55692;53.356;10.030;2023-11-21T05:59:30;15.90;;;8.50;;
68714;SDS011;55692;53.356;10.030;2023-11-21T06:01:56;14.30;;;7.93;;
68714;SDS011;55692;53.356;10.030;2023-11-21T06:04:22;13.32;;;8.25;;
68714;SDS011;55692;53.356;10.030;2023-11-21T06:06:49;14.48;;;7.88;;
68714;SDS011;55692;53.356;10.030;2023-11-21T06:09:15;15.48;;;7.90;;
68714;SDS011;55692;53.356;10.030;2023-11-21T06:11:41;16.30;;;8.10;;
68714;SDS011;55692;53.356;10.030;2023-11-21T06:14:07;14.02;;;7.60;;
68714;SDS011;55692;53.356;10.030;2023-11-21T06:16:34;14.15;;;8.55;;
68714;SDS011;55692;53.356;10.030;2023-11-21T06:19:00;13.98;;;7.30;;
68714;SDS011;55692;53.356;10.030;2023-11-21T06:21:26;20.90;;;8.85;;
68714;SDS011;55692;53.356;10.030;2023-11-21T06:23:52;13.80;;;7.60;;
68714;SDS011;55692;53.356;10.030;2023-11-21T06:26:18;14.82;;;8.05;;
68714;SDS011;55692;53.356;10.030;2023-11-21T06:28:45;16.50;;;8.73;;
68714;SDS011;55692;53.356;10.030;2023-11-21T06:31:11;17.00;;;9.20;;
68714;SDS011;55692;53.356;10.030;2023-11-21T06:33:37;19.02;;;9.10;;
68714;SDS011;55692;53.356;10.030;2023-11-21T06:36:03;17.48;;;8.93;;
68714;SDS011;55692;53.356;10.030;2023-11-21T06:38:29;15.40;;;8.40;;
68714;SDS011;55692;53.356;10.030;2023-11-21T06:40:57;15.57;;;9.38;;
68714;SDS011;55692;53.356;10.030;2023-11-21T06:43:23;15.40;;;8.65;;
68714;SDS011;55692;53.356;10.030;2023-11-21T06:45:49;17.00;;;9.20;;
68714;SDS011;55692;53.356;10.030;2023-11-21T06:48:15;16.48;;;8.52;;
68714;SDS011;55692;53.356;10.030;2023-11-21T06:50:41;18.48;;;9.18;;
68714;SDS011;55692;53.356;10.030;2023-11-21T06:53:07;17.00;;;8.77;;
68714;SDS011;55692;53.356;10.030;2023-11-21T06:55:34;14.95;;;8.18;;
68714;SDS011;55692;53.356;10.030;2023-11-21T06:58:00;15.65;;;8.65;;
68714;SDS011;55692;53.356;10.030;2023-11-21T07:00:26;14.82;;;8.77;;
68714;SDS011;55692;53.356;10.030;2023-11-21T07:02:53;15.82;;;8.45;;
68714;SDS011;55692;53.356;10.030;2023-11-21T07:05:20;17.02;;;8.30;;
68714;SDS011;55692;53.356;10.030;2023-11-21T07:07:46;17.30;;;8.77;;
68714;SDS011;55692;53.356;10.030;2023-11-21T07:10:13;14.45;;;8.18;;
68714;SDS011;55692;53.356;10.030;2023-11-21T07:12:39;16.95;;;8.63;;
68714;SDS011;55692;53.356;10.030;2023-11-21T07:15:05;13.40;;;8.18;;
68714;SDS011;55692;53.356;10.030;2023-11-21T07:17:34;15.00;;;9.00;;
68714;SDS011;55692;53.356;10.030;2023-11-21T07:20:00;16.42;;;9.38;;
68714;SDS011;55692;53.356;10.030;2023-11-21T07:22:26;18.70;;;9.20;;
68714;SDS011;55692;53.356;10.030;2023-11-21T07:24:52;13.60;;;8.05;;
68714;SDS011;55692;53.356;10.030;2023-11-21T07:27:18;17.08;;;9.10;;
68714;SDS011;55692;53.356;10.030;2023-11-21T07:29:44;17.92;;;8.65;;
68714;SDS011;55692;53.356;10.030;2023-11-21T07:32:10;15.75;;;8.85;;
68714;SDS011;55692;53.356;10.030;2023-11-21T07:34:38;19.58;;;9.55;;
68714;SDS011;55692;53.356;10.030;2023-11-21T07:37:04;15.70;;;9.07;;
68714;SDS011;55692;53.356;10.030;2023-11-21T07:39:30;17.27;;;9.13;;
68714;SDS011;55692;53.356;10.030;2023-11-21T07:41:55;18.63;;;9.73;;
68714;SDS011;55692;53.356;10.030;2023-11-21T07:44:23;14.65;;;9.23;;
68714;SDS011;55692;53.356;10.030;2023-11-21T07:46:49;14.68;;;8.75;;
68714;SDS011;55692;53.356;10.030;2023-11-21T07:49:15;15.65;;;9.05;;
68714;SDS011;55692;53.356;10.030;2023-11-21T07:51:42;16.15;;;8.75;;
68714;SDS011;55692;53.356;10.030;2023-11-21T07:54:08;16.70;;;8.68;;
68714;SDS011;55692;53.356;10.030;2023-11-21T07:56:35;14.15;;;8.63;;
68714;SDS011;55692;53.356;10.030;2023-11-21T07:59:01;16.50;;;8.77;;
68714;SDS011;55692;53.356;10.030;2023-11-21T08:01:27;15.40;;;9.15;;
68714;SDS011;55692;53.356;10.030;2023-11-21T08:03:53;18.88;;;8.60;;
68714;SDS011;55692;53.356;10.030;2023-11-21T08:06:22;16.58;;;9.13;;
68714;SDS011;55692;53.356;10.030;2023-11-21T08:08:49;19.80;;;9.20;;
68714;SDS011;55692;53.356;10.030;2023-11-21T08:11:15;20.83;;;10.02;;
68714;SDS011;55692;53.356;10.030;2023-11-21T08:13:41;15.10;;;8.88;;
68714;SDS011;55692;53.356;10.030;2023-11-21T08:16:07;15.40;;;8.77;;
68714;SDS011;55692;53.356;10.030;2023-11-21T08:18:33;15.60;;;9.00;;
68714;SDS011;55692;53.356;10.030;2023-11-21T08:21:00;17.17;;;9.00;;
68714;SDS011;55692;53.356;10.030;2023-11-21T08:23:26;12.25;;;8.23;;
68714;SDS011;55692;53.356;10.030;2023-11-21T08:25:53;16.88;;;8.85;;
68714;SDS011;55692;53.356;10.030;2023-11-21T08:28:20;14.38;;;8.85;;
68714;SDS011;55692;53.356;10.030;2023-11-21T08:30:51;16.65;;;8.55;;
68714;SDS011;55692;53.356;10.030;2023-11-21T08:33:17;15.25;;;8.43;;
68714;SDS011;55692;53.356;10.030;2023-11-21T08:35:43;12.52;;;8.05;;
68714;SDS011;55692;53.356;10.030;2023-11-21T08:38:10;13.95;;;8.90;;
68714;SDS011;55692;53.356;10.030;2023-11-21T08:40:37;16.17;;;8.68;;
68714;SDS011;55692;53.356;10.030;2023-11-21T08:43:03;14.02;;;8.63;;
68714;SDS011;55692;53.356;10.030;2023-11-21T08:45:33;17.38;;;8.35;;
68714;SDS011;55692;53.356;10.030;2023-11-21T08:47:59;14.95;;;8.98;;
68714;SDS011;55692;53.356;10.030;2023-11-21T08:50:25;18.38;;;8.80;;
68714;SDS011;55692;53.356;10.030;2023-11-21T08:52:51;13.15;;;8.05;;
68714;SDS011;55692;53.356;10.030;2023-11-21T08:55:17;12.55;;;8.35;;
68714;SDS011;55692;53.356;10.030;2023-11-21T08:57:44;12.38;;;7.70;;
68714;SDS011;55692;53.356;10.030;2023-11-21T09:00:14;14.73;;;8.00;;
68714;SDS011;55692;53.356;10.030;2023-11-21T09:02:42;13.35;;;8.45;;
68714;SDS011;55692;53.356;10.030;2023-11-21T09:05:08;13.70;;;8.13;;
68714;SDS011;55692;53.356;10.030;2023-11-21T09:07:35;12.68;;;7.75;;
68714;SDS011;55692;53.356;10.030;2023-11-21T09:10:01;13.55;;;8.10;;
68714;SDS011;55692;53.356;10.030;2023-11-21T09:12:28;12.27;;;7.43;;
68714;SDS011;55692;53.356;10.030;2023-11-21T09:14:54;11.95;;;7.10;;
68714;SDS011;55692;53.356;10.030;2023-11-21T09:17:20;12.88;;;7.18;;
68714;SDS011;55692;53.356;10.030;2023-11-21T09:19:46;12.60;;;7.47;;
68714;SDS011;55692;53.356;10.030;2023-11-21T09:22:16;12.18;;;7.70;;
68714;SDS011;55692;53.356;10.030;2023-11-21T09:24:42;12.18;;;7.55;;
68714;SDS011;55692;53.356;10.030;2023-11-21T09:27:08;15.55;;;8.10;;
68714;SDS011;55692;53.356;10.030;2023-11-21T09:29:34;12.02;;;7.70;;
68714;SDS011;55692;53.356;10.030;2023-11-21T09:32:01;11.23;;;7.70;;
68714;SDS011;55692;53.356;10.030;2023-11-21T09:34:28;13.40;;;8.23;;
68714;SDS011;55692;53.356;10.030;2023-11-21T09:36:54;11.75;;;6.88;;
68714;SDS011;55692;53.356;10.030;2023-11-21T09:39:20;14.00;;;7.63;;
68714;SDS011;55692;53.356;10.030;2023-11-21T09:41:49;16.85;;;6.82;;
68714;SDS011;55692;53.356;10.030;2023-11-21T09:44:20;12.98;;;7.72;;
68714;SDS011;55692;53.356;10.030;2023-11-21T09:46:48;10.02;;;6.68;;
68714;SDS011;55692;53.356;10.030;2023-11-21T09:49:14;10.57;;;5.60;;
68714;SDS011;55692;53.356;10.030;2023-11-21T09:51:42;10.60;;;5.88;;
68714;SDS011;55692;53.356;10.030;2023-11-21T09:54:08;8.88;;;5.10;;
68714;SDS011;55692;53.356;10.030;2023-11-21T09:56:37;10.45;;;5.55;;
68714;SDS011;55692;53.356;10.030;2023-11-21T09:59:03;7.88;;;5.05;;
68714;SDS011;55692;53.356;10.030;2023-11-21T10:01:32;8.48;;;5.00;;
68714;SDS011;55692;53.356;10.030;2023-11-21T10:03:58;10.48;;;7.20;;
68714;SDS011;55692;53.356;10.030;2023-11-21T10:06:26;8.45;;;5.13;;
68714;SDS011;55692;53.356;10.030;2023-11-21T10:08:55;8.05;;;4.95;;
68714;SDS011;55692;53.356;10.030;2023-11-21T10:11:24;7.30;;;4.80;;
68714;SDS011;55692;53.356;10.030;2023-11-21T10:13:54;8.95;;;4.47;;
68714;SDS011;55692;53.356;10.030;2023-11-21T10:16:22;9.57;;;5.15;;
68714;SDS011;55692;53.356;10.030;2023-11-21T10:18:52;10.40;;;4.60;;
68714;SDS011;55692;53.356;10.030;2023-11-21T10:21:20;7.95;;;4.70;;
68714;SDS011;55692;53.356;10.030;2023-11-21T10:23:46;5.78;;;4.07;;
68714;SDS011;55692;53.356;10.030;2023-11-21T10:26:12;10.50;;;4.72;;
68714;SDS011;55692;53.356;10.030;2023-11-21T10:28:41;8.48;;;4.30;;
68714;SDS011;55692;53.356;10.030;2023-11-21T10:31:07;5.63;;;4.05;;
68714;SDS011;55692;53.356;10.030;2023-11-21T10:33:34;6.68;;;3.95;;
68714;SDS011;55692;53.356;10.030;2023-11-21T10:36:00;7.55;;;4.13;;
68714;SDS011;55692;53.356;10.030;2023-11-21T10:38:27;7.10;;;4.38;;
68714;SDS011;55692;53.356;10.030;2023-11-21T10:40:55;7.20;;;4.32;;
68714;SDS011;55692;53.356;10.030;2023-11-21T10:43:24;6.72;;;4.15;;
68714;SDS011;55692;53.356;10.030;2023-11-21T10:45:51;5.78;;;3.30;;
68714;SDS011;55692;53.356;10.030;2023-11-21T10:48:17;8.18;;;3.80;;
68714;SDS011;55692;53.356;10.030;2023-11-21T10:50:44;9.57;;;3.70;;
68714;SDS011;55692;53.356;10.030;2023-11-21T10:53:10;4.97;;;3.58;;
68714;SDS011;55692;53.356;10.030;2023-11-21T10:55:37;4.53;;;3.28;;
68714;SDS011;55692;53.356;10.030;2023-11-21T10:58:03;5.72;;;3.60;;
68714;SDS011;55692;53.356;10.030;2023-11-21T11:00:30;6.18;;;3.38;;
68714;SDS011;55692;53.356;10.030;2023-11-21T11:02:56;6.45;;;3.63;;
68714;SDS011;55692;53.356;10.030;2023-11-21T11:05:24;6.60;;;3.00;;
68714;SDS011;55692;53.356;10.030;2023-11-21T11:07:51;5.80;;;3.45;;
68714;SDS011;55692;53.356;10.030;2023-11-21T11:10:19;5.40;;;3.03;;
68714;SDS011;55692;53.356;10.030;2023-11-21T11:12:47;4.43;;;2.92;;
68714;SDS011;55692;53.356;10.030;2023-11-21T11:15:14;4.22;;;3.10;;
68714;SDS011;55692;53.356;10.030;2023-11-21T11:17:41;5.05;;;2.90;;
68714;SDS011;55692;53.356;10.030;2023-11-21T11:20:07;4.55;;;3.22;;
68714;SDS011;55692;53.356;10.030;2023-11-21T11:22:44;4.55;;;2.90;;
68714;SDS011;55692;53.356;10.030;2023-11-21T11:25:25;3.90;;;2.85;;
68714;SDS011;55692;53.356;10.030;2023-11-21T11:28:00;7.13;;;3.38;;
68714;SDS011;55692;53.356;10.030;2023-11-21T11:35:48;4.20;;;2.85;;
68714;SDS011;55692;53.356;10.030;2023-11-21T11:38:18;3.80;;;2.78;;
68714;SDS011;55692;53.356;10.030;2023-11-21T11:40:45;5.40;;;3.10;;
68714;SDS011;55692;53.356;10.030;2023-11-21T11:43:11;5.97;;;2.85;;
68714;SDS011;55692;53.356;10.030;2023-11-21T11:45:37;4.38;;;2.70;;
68714;SDS011;55692;53.356;10.030;2023-11-21T11:48:07;4.20;;;2.95;;
68714;SDS011;55692;53.356;10.030;2023-11-21T11:50:33;4.78;;;2.40;;
68714;SDS011;55692;53.356;10.030;2023-11-21T11:53:15;4.35;;;2.38;;
68714;SDS011;55692;53.356;10.030;2023-11-21T11:55:41;4.55;;;2.70;;
68714;SDS011;55692;53.356;10.030;2023-11-21T11:58:07;7.13;;;2.50;;
68714;SDS011;55692;53.356;10.030;2023-11-21T12:00:34;4.97;;;2.90;;
68714;SDS011;55692;53.356;10.030;2023-11-21T12:03:02;5.97;;;2.53;;
68714;SDS011;55692;53.356;10.030;2023-11-21T12:05:29;4.55;;;2.70;;
68714;SDS011;55692;53.356;10.030;2023-11-21T12:07:59;3.35;;;2.47;;
68714;SDS011;55692;53.356;10.030;2023-11-21T12:10:38;4.05;;;2.70;;
68714;SDS011;55692;53.356;10.030;2023-11-21T12:13:08;4.45;;;2.40;;
68714;SDS011;55692;53.356;10.030;2023-11-21T12:15:35;5.00;;;2.58;;
68714;SDS011;55692;53.356;10.030;2023-11-21T12:18:01;3.03;;;2.20;;
68714;SDS011;55692;53.356;10.030;2023-11-21T12:20:27;2.97;;;2.35;;
68714;SDS011;55692;53.356;10.030;2023-11-21T12:22:54;6.22;;;2.60;;
68714;SDS011;55692;53.356;10.030;2023-11-21T12:25:21;8.60;;;3.08;;
68714;SDS011;55692;53.356;10.030;2023-11-21T12:27:51;5.68;;;2.72;;
68714;SDS011;55692;53.356;10.030;2023-11-21T12:30:20;4.88;;;2.63;;
68714;SDS011;55692;53.356;10.030;2023-11-21T12:32:48;5.07;;;2.40;;
68714;SDS011;55692;53.356;10.030;2023-11-21T12:35:14;6.80;;;2.63;;
68714;SDS011;55692;53.356;10.030;2023-11-21T12:37:44;4.13;;;2.53;;
68714;SDS011;55692;53.356;10.030;2023-11-21T12:40:10;4.05;;;2.47;;
68714;SDS011;55692;53.356;10.030;2023-11-21T12:42:40;5.35;;;2.83;;
68714;SDS011;55692;53.356;10.030;2023-11-21T12:45:07;5.80;;;2.92;;
68714;SDS011;55692;53.356;10.030;2023-11-21T12:47:36;4.35;;;2.85;;
68714;SDS011;55692;53.356;10.030;2023-11-21T12:50:02;6.35;;;2.60;;
68714;SDS011;55692;53.356;10.030;2023-11-21T12:52:31;7.93;;;2.92;;
68714;SDS011;55692;53.356;10.030;2023-11-21T12:54:57;7.18;;;3.08;;
68714;SDS011;55692;53.356;10.030;2023-11-21T12:57:27;3.88;;;2.60;;
68714;SDS011;55692;53.356;10.030;2023-11-21T12:59:56;3.63;;;2.67;;
68714;SDS011;55692;53.356;10.030;2023-11-21T13:02:25;4.82;;;3.00;;
68714;SDS011;55692;53.356;10.030;2023-11-21T13:04:52;4.20;;;3.30;;
68714;SDS011;55692;53.356;10.030;2023-11-21T13:07:19;4.18;;;2.92;;
68714;SDS011;55692;53.356;10.030;2023-11-21T13:09:47;4.65;;;2.65;;
68714;SDS011;55692;53.356;10.030;2023-11-21T13:12:14;7.40;;;2.97;;
68714;SDS011;55692;53.356;10.030;2023-11-21T13:14:43;6.97;;;3.38;;
68714;SDS011;55692;53.356;10.030;2023-11-21T13:17:11;4.65;;;3.30;;
68714;SDS011;55692;53.356;10.030;2023-11-21T13:19:38;6.03;;;3.53;;
68714;SDS011;55692;53.356;10.030;2023-11-21T13:22:04;5.72;;;3.33;;
68714;SDS011;55692;53.356;10.030;2023-11-21T13:24:30;5.68;;;3.25;;
68714;SDS011;55692;53.356;10.030;2023-11-21T13:26:57;8.75;;;3.47;;
68714;SDS011;55692;53.356;10.030;2023-11-21T13:29:23;5.28;;;3.60;;
68714;SDS011;55692;53.356;10.030;2023-11-21T13:31:50;6.22;;;2.85;;
68714;SDS011;55692;53.356;10.030;2023-11-21T13:34:18;6.75;;;3.47;;
68714;SDS011;55692;53.356;10.030;2023-11-21T13:36:47;6.07;;;3.25;;
68714;SDS011;55692;53.356;10.030;2023-11-21T13:39:13;5.03;;;3.10;;
68714;SDS011;55692;53.356;10.030;2023-11-21T13:41:41;5.95;;;3.00;;
68714;SDS011;55692;53.356;10.030;2023-11-21T13:44:07;7.15;;;3.45;;
68714;SDS011;55692;53.356;10.030;2023-11-21T13:46:42;6.97;;;3.40;;
68714;SDS011;55692;53.356;10.030;2023-11-21T13:49:09;8.10;;;3.17;;
68714;SDS011;55692;53.356;10.030;2023-11-21T13:51:35;6.97;;;3.50;;
68714;SDS011;55692;53.356;10.030;2023-11-21T13:54:09;6.40;;;3.10;;
68714;SDS011;55692;53.356;10.030;2023-11-21T13:56:36;5.63;;;3.22;;
68714;SDS011;55692;53.356;10.030;2023-11-21T13:59:03;7.43;;;3.30;;
68714;SDS011;55692;53.356;10.030;2023-11-21T14:01:41;4.32;;;3.05;;
68714;SDS011;55692;53.356;10.030;2023-11-21T14:04:19;6.32;;;3.65;;
68714;SDS011;55692;53.356;10.030;2023-11-21T14:06:59;6.47;;;3.60;;
68714;SDS011;55692;53.356;10.030;2023-11-21T14:09:35;5.75;;;3.42;;
68714;SDS011;55692;53.356;10.030;2023-11-21T14:12:08;6.50;;;3.60;;
68714;SDS011;55692;53.356;10.030;2023-11-21T14:14:37;7.45;;;3.50;;
68714;SDS011;55692;53.356;10.030;2023-11-21T14:17:04;6.60;;;3.50;;
68714;SDS011;55692;53.356;10.030;2023-11-21T14:19:32;6.10;;;3.10;;
68714;SDS011;55692;53.356;10.030;2023-11-21T14:21:59;6.20;;;3.17;;
68714;SDS011;55692;53.356;10.030;2023-11-21T14:24:25;5.93;;;2.95;;
68714;SDS011;55692;53.356;10.030;2023-11-21T14:26:51;4.72;;;3.60;;
68714;SDS011;55692;53.356;10.030;2023-11-21T14:29:18;5.38;;;4.05;;
68714;SDS011;55692;53.356;10.030;2023-11-21T14:31:48;4.68;;;2.78;;
68714;SDS011;55692;53.356;10.030;2023-11-21T14:34:21;7.22;;;3.70;;
68714;SDS011;55692;53.356;10.030;2023-11-21T14:36:47;5.35;;;3.10;;
68714;SDS011;55692;53.356;10.030;2023-11-21T14:39:14;7.88;;;3.55;;
68714;SDS011;55692;53.356;10.030;2023-11-21T14:41:52;4.80;;;3.13;;
68714;SDS011;55692;53.356;10.030;2023-11-21T14:44:19;5.65;;;3.15;;
68714;SDS011;55692;53.356;10.030;2023-11-21T14:46:45;8.48;;;4.20;;
68714;SDS011;55692;53.356;10.030;2023-11-21T14:49:14;4.82;;;3.05;;
68714;SDS011;55692;53.356;10.030;2023-11-21T14:51:52;4.00;;;3.00;;
68714;SDS011;55692;53.356;10.030;2023-11-21T14:54:31;3.90;;;2.85;;
68714;SDS011;55692;53.356;10.030;2023-11-21T14:57:05;7.55;;;3.40;;
68714;SDS011;55692;53.356;10.030;2023-11-21T14:59:35;3.80;;;2.80;;
68714;SDS011;55692;53.356;10.030;2023-11-21T15:02:01;10.60;;;3.53;;
68714;SDS011;55692;53.356;10.030;2023-11-21T15:04:40;4.63;;;3.22;;
68714;SDS011;55692;53.356;10.030;2023-11-21T15:07:07;5.35;;;3.33;;
68714;SDS011;55692;53.356;10.030;2023-11-21T15:09:33;6.18;;;3.22;;
68714;SDS011;55692;53.356;10.030;2023-11-21T15:12:00;7.28;;;3.35;;
68714;SDS011;55692;53.356;10.030;2023-11-21T15:14:39;7.28;;;3.28;;
68714;SDS011;55692;53.356;10.030;2023-11-21T15:17:05;4.93;;;3.25;;
68714;SDS011;55692;53.356;10.030;2023-11-21T15:19:32;6.18;;;3.35;;
68714;SDS011;55692;53.356;10.030;2023-11-21T15:21:59;4.18;;;3.00;;
68714;SDS011;55692;53.356;10.030;2023-11-21T15:24:25;6.20;;;3.00;;
68714;SDS011;55692;53.356;10.030;2023-11-21T15:26:51;8.38;;;3.50;;
68714;SDS011;55692;53.356;10.030;2023-11-21T15:29:17;8.00;;;3.53;;
68714;SDS011;55692;53.356;10.030;2023-11-21T15:31:45;5.82;;;3.17;;
68714;SDS011;55692;53.356;10.030;2023-11-21T15:34:13;4.70;;;2.90;;
68714;SDS011;55692;53.356;10.030;2023-11-21T15:36:40;7.05;;;3.58;;
68714;SDS011;55692;53.356;10.030;2023-11-21T15:39:05;4.75;;;3.15;;
68714;SDS011;55692;53.356;10.030;2023-11-21T15:41:35;8.82;;;3.42;;
68714;SDS011;55692;53.356;10.030;2023-11-21T15:44:03;3.83;;;2.65;;
68714;SDS011;55692;53.356;10.030;2023-11-21T15:46:29;6.22;;;2.90;;
68714;SDS011;55692;53.356;10.030;2023-11-21T15:48:56;4.40;;;2.72;;
68714;SDS011;55692;53.356;10.030;2023-11-21T15:51:22;4.20;;;2.88;;
68714;SDS011;55692;53.356;10.030;2023-11-21T15:53:48;7.22;;;2.60;;
68714;SDS011;55692;53.356;10.030;2023-11-21T15:56:14;4.57;;;2.22;;
68714;SDS011;55692;53.356;10.030;2023-11-21T15:58:40;3.95;;;2.33;;
68714;SDS011;55692;53.356;10.030;2023-11-21T16:01:10;3.30;;;1.85;;
68714;SDS011;55692;53.356;10.030;2023-11-21T16:03:38;4.10;;;2.40;;
68714;SDS011;55692;53.356;10.030;2023-11-21T16:06:04;3.03;;;2.15;;
68714;SDS011;55692;53.356;10.030;2023-11-21T16:08:31;5.53;;;2.25;;
68714;SDS011;55692;53.356;10.030;2023-11-21T16:10:57;3.88;;;2.28;;
68714;SDS011;55692;53.356;10.030;2023-11-21T16:13:25;4.43;;;1.95;;
68714;SDS011;55692;53.356;10.030;2023-11-21T16:15:51;3.85;;;2.28;;
68714;SDS011;55692;53.356;10.030;2023-11-21T16:18:18;6.10;;;2.17;;
68714;SDS011;55692;53.356;10.030;2023-11-21T16:20:44;4.60;;;2.70;;
68714;SDS011;55692;53.356;10.030;2023-11-21T16:23:10;3.20;;;2.10;;
68714;SDS011;55692;53.356;10.030;2023-11-21T16:25:36;3.35;;;1.90;;
68714;SDS011;55692;53.356;10.030;2023-11-21T16:28:02;5.50;;;2.17;;
68714;SDS011;55692;53.356;10.030;2023-11-21T16:30:31;3.38;;;2.03;;
68714;SDS011;55692;53.356;10.030;2023-11-21T16:32:59;3.15;;;2.40;;
68714;SDS011;55692;53.356;10.030;2023-11-21T16:35:25;3.60;;;2.30;;
68714;SDS011;55692;53.356;10.030;2023-11-21T16:37:51;4.53;;;2.20;;
68714;SDS011;55692;53.356;10.030;2023-11-21T16:40:17;4.43;;;2.22;;
68714;SDS011;55692;53.356;10.030;2023-11-21T16:42:44;4.82;;;2.53;;
68714;SDS011;55692;53.356;10.030;2023-11-21T16:45:10;3.75;;;2.40;;
68714;SDS011;55692;53.356;10.030;2023-11-21T16:47:36;4.40;;;2.65;;
68714;SDS011;55692;53.356;10.030;2023-11-21T16:50:05;4.43;;;2.60;;